Time,TemperatureF,DewpointF,PressureIn,WindDirection,WindDirectionDegrees,WindSpeedMPH,WindSpeedGustMPH,Humidity,HourlyPrecipIn,Conditions,Clouds,dailyrainin,SolarRadiationWatts/m^2,SoftwareType,DateUTC
2013-09-02 00:00:00,73.0,50.0,-100.00,WNW,293,4.0,12.0,44,0.00,,,0.00,0.000000,,2013-09-02 07:00:00,
2013-09-02 00:42:00,73.0,50.0,-100.00,WNW,293,4.0,12.0,44,0.00,,,0.00,0.000000,,2013-09-02 07:42:00,
2013-09-02 00:52:00,73.0,50.0,-100.00,WNW,293,4.0,12.0,44,0.00,,,0.00,0.000000,,2013-09-02 07:52:00,
2013-09-02 01:00:00,73.0,51.0,-100.00,WNW,290,3.0,11.0,46,0.00,,,0.00,0.000000,,2013-09-02 08:00:00,
2013-09-02 01:22:00,73.0,51.0,-100.00,WNW,290,3.0,11.0,46,0.00,,,0.00,0.000000,,2013-09-02 08:22:00,
2013-09-02 01:32:00,73.0,51.0,-100.00,WNW,290,3.0,11.0,46,0.00,,,0.00,0.000000,,2013-09-02 08:32:00,
2013-09-02 01:42:00,73.0,51.0,-100.00,WNW,290,3.0,11.0,46,0.00,,,0.00,0.000000,,2013-09-02 08:42:00,
2013-09-02 01:52:00,73.0,51.0,-100.00,WNW,290,3.0,11.0,46,0.00,,,0.00,0.000000,,2013-09-02 08:52:00,
2013-09-02 02:00:00,72.0,51.0,-100.00,WSW,242,1.0,9.0,48,0.00,,,0.00,0.000000,,2013-09-02 09:00:00,
2013-09-02 02:44:00,72.0,51.0,-100.00,WSW,242,1.0,9.0,48,0.00,,,0.00,0.000000,,2013-09-02 09:44:00,
2013-09-02 02:53:00,72.0,51.0,-100.00,WSW,242,1.0,9.0,48,0.00,,,0.00,0.000000,,2013-09-02 09:53:00,
2013-09-02 03:00:00,70.0,50.0,-100.00,WNW,293,4.0,8.0,49,0.00,,,0.00,0.000000,,2013-09-02 10:00:00,
2013-09-02 03:23:00,70.0,50.0,-100.00,WNW,293,4.0,8.0,49,0.00,,,0.00,0.000000,,2013-09-02 10:23:00,
2013-09-02 03:33:00,70.0,50.0,-100.00,WNW,293,4.0,8.0,49,0.00,,,0.00,0.000000,,2013-09-02 10:33:00,
2013-09-02 03:42:00,70.0,50.0,-100.00,WNW,293,4.0,8.0,49,0.00,,,0.00,0.000000,,2013-09-02 10:42:00,
2013-09-02 03:53:00,70.0,50.0,-100.00,WNW,293,4.0,8.0,49,0.00,,,0.00,0.000000,,2013-09-02 10:53:00,
2013-09-02 04:00:00,69.0,50.0,-100.00,WNW,288,1.0,7.0,50,0.00,,,0.00,0.000000,,2013-09-02 11:00:00,
2013-09-02 04:22:00,69.0,50.0,-100.00,WNW,288,1.0,7.0,50,0.00,,,0.00,0.000000,,2013-09-02 11:22:00,
2013-09-02 04:33:00,69.0,50.0,-100.00,WNW,288,1.0,7.0,50,0.00,,,0.00,0.000000,,2013-09-02 11:33:00,
2013-09-02 04:42:00,69.0,50.0,-100.00,WNW,288,1.0,7.0,50,0.00,,,0.00,0.000000,,2013-09-02 11:42:00,
2013-09-02 04:52:00,69.0,50.0,-100.00,WNW,288,1.0,7.0,50,0.00,,,0.00,0.000000,,2013-09-02 11:52:00,
2013-09-02 05:00:00,69.0,50.0,-100.00,WNW,293,5.0,8.0,51,0.00,,,-99.99,0.000000,,2013-09-02 12:00:00,
2013-09-02 05:21:00,69.0,50.0,-100.00,WNW,293,5.0,8.0,51,0.00,,,-99.99,0.000000,,2013-09-02 12:21:00,
2013-09-02 05:32:00,69.0,50.0,-100.00,WNW,293,5.0,8.0,51,0.00,,,-99.99,0.000000,,2013-09-02 12:32:00,
2013-09-02 05:43:00,69.0,50.0,-100.00,WNW,293,5.0,8.0,51,0.00,,,-99.99,0.000000,,2013-09-02 12:43:00,
2013-09-02 05:52:00,69.0,50.0,-100.00,WNW,293,5.0,8.0,51,0.00,,,-99.99,0.000000,,2013-09-02 12:52:00,
2013-09-02 06:00:00,69.0,51.0,-100.00,WNW,299,2.0,8.0,52,0.00,,,0.00,0.000000,,2013-09-02 13:00:00,
2013-09-02 06:22:00,69.0,51.0,-100.00,WNW,299,2.0,8.0,52,0.00,,,0.00,0.000000,,2013-09-02 13:22:00,
2013-09-02 06:32:00,69.0,51.0,-100.00,WNW,299,2.0,8.0,52,0.00,,,0.00,0.000000,,2013-09-02 13:32:00,
2013-09-02 06:42:00,69.0,51.0,-100.00,WNW,299,2.0,8.0,52,0.00,,,0.00,0.000000,,2013-09-02 13:42:00,
2013-09-02 06:52:00,69.0,51.0,-100.00,WNW,299,2.0,8.0,52,0.00,,,0.00,0.000000,,2013-09-02 13:52:00,
2013-09-02 07:00:00,68.0,50.0,-100.00,WNW,296,3.0,8.0,52,0.00,,,-99.99,0.000000,,2013-09-02 14:00:00,
2013-09-02 07:22:00,68.0,50.0,-100.00,WNW,296,3.0,8.0,52,0.00,,,-99.99,0.000000,,2013-09-02 14:22:00,
2013-09-02 07:32:00,68.0,50.0,-100.00,WNW,296,3.0,8.0,52,0.00,,,-99.99,0.000000,,2013-09-02 14:32:00,
2013-09-02 07:43:00,68.0,50.0,-100.00,WNW,296,3.0,8.0,52,0.00,,,-99.99,0.000000,,2013-09-02 14:43:00,
2013-09-02 07:52:00,68.0,50.0,-100.00,WNW,296,3.0,8.0,52,0.00,,,-99.99,0.000000,,2013-09-02 14:52:00,
2013-09-02 08:00:00,69.0,51.0,-100.00,WNW,289,2.0,7.0,52,0.00,,,0.00,5.000000,,2013-09-02 15:00:00,
2013-09-02 08:23:00,69.0,51.0,-100.00,WNW,289,2.0,7.0,52,0.00,,,0.00,5.000000,,2013-09-02 15:23:00,
2013-09-02 08:34:00,69.0,51.0,-100.00,WNW,289,2.0,7.0,52,0.00,,,0.00,5.000000,,2013-09-02 15:34:00,
2013-09-02 08:45:00,69.0,51.0,-100.00,WNW,289,2.0,7.0,52,0.00,,,0.00,5.000000,,2013-09-02 15:45:00,
2013-09-02 08:55:00,69.0,51.0,-100.00,WNW,289,2.0,7.0,52,0.00,,,0.00,5.000000,,2013-09-02 15:55:00,
2013-09-02 11:00:00,84.0,52.0,-100.00,ESE,115,4.0,7.0,33,-99.99,,,0.00,572.000000,,2013-09-02 18:00:00,
2013-09-02 11:42:00,84.0,52.0,-100.00,ESE,115,4.0,7.0,33,-99.99,,,0.00,572.000000,,2013-09-02 18:42:00,
2013-09-02 11:52:00,84.0,52.0,-100.00,ESE,115,4.0,7.0,33,-99.99,,,0.00,572.000000,,2013-09-02 18:52:00,
2013-09-02 12:00:00,87.0,51.0,-100.00,SSE,149,3.0,10.0,29,0.00,,,0.00,970.000000,,2013-09-02 19:00:00,
2013-09-02 12:42:00,87.0,51.0,-100.00,SSE,149,3.0,10.0,29,0.00,,,0.00,970.000000,,2013-09-02 19:42:00,
2013-09-02 12:52:00,87.0,51.0,-100.00,SSE,149,3.0,10.0,29,0.00,,,0.00,970.000000,,2013-09-02 19:52:00,
2013-09-02 13:00:00,89.0,49.0,-100.00,ESE,102,6.0,12.0,25,0.00,,,0.00,1125.000000,,2013-09-02 20:00:00,
2013-09-02 13:22:00,89.0,49.0,-100.00,ESE,102,6.0,12.0,25,0.00,,,0.00,1125.000000,,2013-09-02 20:22:00,
2013-09-02 13:33:00,89.0,49.0,-100.00,ESE,102,6.0,12.0,25,0.00,,,0.00,1125.000000,,2013-09-02 20:33:00,
2013-09-02 13:42:00,89.0,49.0,-100.00,ESE,102,6.0,12.0,25,0.00,,,0.00,1125.000000,,2013-09-02 20:42:00,
2013-09-02 13:52:00,89.0,49.0,-100.00,ESE,102,6.0,12.0,25,0.00,,,0.00,1125.000000,,2013-09-02 20:52:00,
2013-09-02 14:00:00,91.0,52.0,-100.00,WSW,249,5.0,12.0,27,0.00,,,0.00,1158.000000,,2013-09-02 21:00:00,
2013-09-02 14:23:00,91.0,52.0,-100.00,WSW,249,5.0,12.0,27,0.00,,,0.00,1158.000000,,2013-09-02 21:23:00,
2013-09-02 14:34:00,91.0,52.0,-100.00,WSW,249,5.0,12.0,27,0.00,,,0.00,1158.000000,,2013-09-02 21:34:00,
2013-09-02 14:44:00,91.0,52.0,-100.00,WSW,249,5.0,12.0,27,0.00,,,0.00,1158.000000,,2013-09-02 21:44:00,
2013-09-02 14:55:00,91.0,52.0,-100.00,WSW,249,5.0,12.0,27,0.00,,,0.00,1158.000000,,2013-09-02 21:55:00,
2013-09-02 15:00:00,93.0,48.0,-100.00,WNW,298,9.0,17.0,22,0.00,,,0.00,969.000000,,2013-09-02 22:00:00,
2013-09-02 15:24:00,93.0,48.0,-100.00,WNW,298,9.0,17.0,22,0.00,,,0.00,969.000000,,2013-09-02 22:24:00,
2013-09-02 15:33:00,93.0,48.0,-100.00,WNW,298,9.0,17.0,22,0.00,,,0.00,969.000000,,2013-09-02 22:33:00,
2013-09-02 15:44:00,93.0,48.0,-100.00,WNW,298,9.0,17.0,22,0.00,,,0.00,969.000000,,2013-09-02 22:44:00,
2013-09-02 15:54:00,93.0,48.0,-100.00,WNW,298,9.0,17.0,22,0.00,,,0.00,969.000000,,2013-09-02 22:54:00,
2013-09-02 16:00:00,91.0,48.0,-100.00,West,280,10.0,19.0,23,0.00,,,0.00,1103.000000,,2013-09-02 23:00:00,
2013-09-02 16:22:00,91.0,48.0,-100.00,West,280,10.0,19.0,23,0.00,,,0.00,1103.000000,,2013-09-02 23:22:00,
2013-09-02 16:34:00,91.0,48.0,-100.00,West,280,10.0,19.0,23,0.00,,,0.00,1103.000000,,2013-09-02 23:34:00,
2013-09-02 16:42:00,91.0,48.0,-100.00,West,280,10.0,19.0,23,0.00,,,0.00,1103.000000,,2013-09-02 23:42:00,
2013-09-02 16:52:00,91.0,48.0,-100.00,West,280,10.0,19.0,23,0.00,,,0.00,1103.000000,,2013-09-02 23:52:00,
2013-09-02 17:00:00,90.0,49.0,-100.00,WNW,285,9.0,20.0,25,0.00,,,0.00,839.000000,,2013-09-03 00:00:00,
2013-09-02 17:22:00,90.0,49.0,-100.00,WNW,285,9.0,20.0,25,0.00,,,0.00,839.000000,,2013-09-03 00:22:00,
2013-09-02 17:32:00,90.0,49.0,-100.00,WNW,285,9.0,20.0,25,0.00,,,0.00,839.000000,,2013-09-03 00:32:00,
2013-09-02 17:42:00,90.0,49.0,-100.00,WNW,285,9.0,20.0,25,0.00,,,0.00,839.000000,,2013-09-03 00:42:00,
2013-09-02 17:52:00,90.0,49.0,-100.00,WNW,285,9.0,20.0,25,0.00,,,0.00,839.000000,,2013-09-03 00:52:00,
2013-09-02 18:00:00,88.0,49.0,-100.00,West,279,11.0,21.0,26,0.00,,,0.00,651.000000,,2013-09-03 01:00:00,
2013-09-02 18:22:00,88.0,49.0,-100.00,West,279,11.0,21.0,26,0.00,,,0.00,651.000000,,2013-09-03 01:22:00,
2013-09-02 18:32:00,88.0,49.0,-100.00,West,279,11.0,21.0,26,0.00,,,0.00,651.000000,,2013-09-03 01:32:00,
2013-09-02 18:42:00,88.0,49.0,-100.00,West,279,11.0,21.0,26,0.00,,,0.00,651.000000,,2013-09-03 01:42:00,
2013-09-02 18:52:00,88.0,49.0,-100.00,West,279,11.0,21.0,26,0.00,,,0.00,651.000000,,2013-09-03 01:52:00,
2013-09-02 19:00:00,84.0,51.0,-100.00,West,271,11.0,22.0,32,0.00,,,0.00,358.000000,,2013-09-03 02:00:00,
2013-09-02 19:42:00,84.0,51.0,-100.00,West,271,11.0,22.0,32,0.00,,,0.00,358.000000,,2013-09-03 02:42:00,
2013-09-02 19:52:00,84.0,51.0,-100.00,West,271,11.0,22.0,32,0.00,,,0.00,358.000000,,2013-09-03 02:52:00,
2013-09-02 20:00:00,80.0,50.0,-100.00,WNW,291,9.0,24.0,35,0.00,,,0.00,74.000000,,2013-09-03 03:00:00,
2013-09-02 20:23:00,80.0,50.0,-100.00,WNW,291,9.0,24.0,35,0.00,,,0.00,74.000000,,2013-09-03 03:23:00,
2013-09-02 20:35:00,80.0,50.0,-100.00,WNW,291,9.0,24.0,35,0.00,,,0.00,74.000000,,2013-09-03 03:35:00,
2013-09-02 20:45:00,80.0,50.0,-100.00,WNW,291,9.0,24.0,35,0.00,,,0.00,74.000000,,2013-09-03 03:45:00,
2013-09-02 20:55:00,80.0,50.0,-100.00,WNW,291,9.0,24.0,35,0.00,,,0.00,74.000000,,2013-09-03 03:55:00,
2013-09-02 21:00:00,79.0,51.0,-100.00,West,280,11.0,16.0,38,0.00,,,0.00,2.000000,,2013-09-03 04:00:00,
2013-09-02 21:25:00,79.0,51.0,-100.00,West,280,11.0,16.0,38,0.00,,,0.00,2.000000,,2013-09-03 04:25:00,
2013-09-02 21:34:00,79.0,51.0,-100.00,West,280,11.0,16.0,38,0.00,,,0.00,2.000000,,2013-09-03 04:34:00,
2013-09-02 21:44:00,79.0,51.0,-100.00,West,280,11.0,16.0,38,0.00,,,0.00,2.000000,,2013-09-03 04:44:00,
2013-09-02 21:53:00,79.0,51.0,-100.00,West,280,11.0,16.0,38,0.00,,,0.00,2.000000,,2013-09-03 04:53:00,
2013-09-02 22:00:00,78.0,50.0,-100.00,WNW,285,8.0,22.0,37,0.00,,,0.00,0.000000,,2013-09-03 05:00:00,
2013-09-02 22:23:00,78.0,50.0,-100.00,WNW,285,8.0,22.0,37,0.00,,,0.00,0.000000,,2013-09-03 05:23:00,
2013-09-02 22:34:00,78.0,50.0,-100.00,WNW,285,8.0,22.0,37,0.00,,,0.00,0.000000,,2013-09-03 05:34:00,
2013-09-02 22:43:00,78.0,50.0,-100.00,WNW,285,8.0,22.0,37,0.00,,,0.00,0.000000,,2013-09-03 05:43:00,
2013-09-02 22:52:00,78.0,50.0,-100.00,WNW,285,8.0,22.0,37,0.00,,,0.00,0.000000,,2013-09-03 05:52:00,
2013-09-02 23:00:00,75.0,50.0,-100.00,SE,141,0.0,18.0,41,0.00,,,0.00,0.000000,,2013-09-03 06:00:00,
2013-09-02 23:43:00,75.0,50.0,-100.00,SE,141,0.0,18.0,41,0.00,,,0.00,0.000000,,2013-09-03 06:43:00,
2013-09-02 23:52:00,75.0,50.0,-100.00,SE,141,0.0,18.0,41,0.00,,,0.00,0.000000,,2013-09-03 06:52:00,